Puritas Park, Ohio
Current Conditions -  °F | °C
As of 6:51 AM on Friday 24 Oct 2014 (Local Time) from KCLE Reporting Station
Broken Clouds Broken Clouds  
Wind Chill: 34°   Ceiling: 21000
Heat Index: 38°   Visibility: 10mi
Dew Point: 35°   Wind: 5mph
Humidity: 89%   Direction: 230°SW
Pressure: 30.13"   Gusts: NA
Location:  41.4315°N, 81.8114°W
Report Text: KCLE 241051Z 23004KT 10SM BKN210 03/02 A3013 RMK AO2 SLP205 T00330017
Loading
Personal Weather Stations






























Interactive Weather Map
Tropical Storm Tracking
New forecast layout! Learn more

10-Day Weather Forecast

Advertisements
Track Severe Weather on mobile